VVDN/DAD METAR and TAF weather

Enter ICAO airport designator
Station Type Date Time Source
VVDN METAR 2021/07/24 20:30 UTC NOAA

VVDN 242030Z 24005KT 9999 FEW015 BKN060 31/21 Q0999 NOSIG


Station Type Date Time Source
VVDN Decoded METAR 2021/07/24 20:30 UTC NOAA

Da Nang, Vietnam (VVDN) 16-02N 108-11E 7M
Jul 24, 2021 - 04:30 PM EDT / 2021.07.24 2030 UTC
Wind: from the WSW (240 degrees) at 6 MPH (5 KT):0
Visibility: greater than 7 mile(s):0
Sky conditions: mostly cloudy
Temperature: 87 F (31 C)
Dew Point: 69 F (21 C)
Relative Humidity: 55%
Pressure (altimeter): 29.50 in. Hg (0999 hPa)
ob: VVDN 242030Z 24005KT 9999 FEW015 BKN060 31/21 Q0999 NOSIG
cycle: 20

Station Type Date Time Source
VVDN TAF 2021/07/24 18:36 UTC NOAA

TAF VVDN 241700Z 2418/2518 18004KT 9999 FEW015 BKN060
TEMPO 2420/2424 5000 RA
BECMG 2500/2501 24012KT
TEMPO 2501/2506 5000 SHRA SCT013 FEW015CB BKN060

Example: see airport list